Terminal Aerodrome Forecast
Issued by NWS

Home | Current Version | Previous Version | Graphics & Text | Print | Product List | Glossary On
Versions: 1 2 3 4 5 6 7 8 9 10 11 12
000
FTUS45 KGGW 232320
TAFGDV
TAF
KGDV 232320Z 2400/2424 29019G29KT P6SM FEW090
     FM240300 29011KT P6SM FEW140
     FM241500 30018G27KT P6SM BKN025
     FM241700 30018G27KT P6SM BKN035=

USA.gov is the U.S. government's official web portal to all federal, state and local government web resources and services.